Time;durP1;ratioP1;P1;durP2;ratioP2;P2;SDS_P1;SDS_P2;PMS_P1;PMS_P2;Temp;Humidity;BMP_temperature;BMP_pressure;BME280_temperature;BME280_humidity;BME280_pressure;Samples;Min_cycle;Max_cycle;Signal;HPM_P1;HPM_P2
2023/07/04 05:07:28;;;;;;;;;;;;;;;;;;1495277;26;20321;-40
2023/07/04 05:09:54;;;;;;;;;;;;;;;;;;5049161;28;19921;-40
2023/07/04 05:12:21;;;;;;;;;;;;;;;;;;5049694;28;19908;-39
2023/07/04 05:14:47;;;;;;;;;;;;;;;;;;5049633;28;19916;-39
2023/07/04 05:17:13;;;;;;;;;;;;;;;;;;5049673;28;19912;-39
2023/07/04 05:19:39;;;;;;;;;;;;;;;;;;5049522;28;20391;-40
2023/07/04 05:22:05;;;;;;;;;;;;;;;;;;5049580;28;19944;-39
2023/07/04 05:24:31;;;;;;;;;;;;;;;;;;5052039;28;19924;-40
2023/07/04 05:26:56;;;;;;;;;;;;;;;;;;5069454;28;19908;-40
2023/07/04 05:29:22;;;;;;;;;;;;;;;;;;5069381;28;20344;-40
2023/07/04 05:31:48;;;;;;;;;;;;;;;;;;5069405;28;19919;-40
2023/07/04 05:34:14;;;;;;;;;;;;;;;;;;5069587;28;19919;-40
2023/07/04 05:36:41;;;;;;;;;;;;;;;;;;5067723;28;19947;-40
2023/07/04 05:39:07;;;;;;;;;;;;;;;;;;5085212;28;19969;-39
2023/07/04 05:41:33;;;;;;;;;;;;;;;;;;5089542;28;19908;-40
2023/07/04 05:44:00;;;;;;;;;;;;;;;;;;5068995;28;19928;-40
2023/07/04 05:46:25;;;;;;;;;;;;;;;;;;5070081;28;19912;-40
2023/07/04 05:48:51;;;;;;;;;;;;;;;;;;5069809;28;19915;-40
2023/07/04 05:51:17;;;;;;;;;;;;;;;;;;5069984;28;19909;-40
2023/07/04 05:53:43;;;;;;;;;;;;;;;;;;5071711;28;19912;-40
2023/07/04 05:56:09;;;;;;;;;;;;;;;;;;5090276;28;20338;-40
2023/07/04 05:58:35;;;;;;;;;;;;;;;;;;5090182;28;19912;-40
2023/07/04 06:01:01;;;;;;;;;;;;;;;;;;5079609;28;19955;-40
2023/07/04 06:03:27;;;;;;;;;;;;;;;;;;5069925;28;19913;-40
2023/07/04 06:05:53;;;;;;;;;;;;;;;;;;5068411;28;19959;-40
2023/07/04 06:08:19;;;;;;;;;;;;;;;;;;5069367;28;19947;-40
2023/07/04 06:10:45;;;;;;;;;;;;;;;;;;5070521;28;19917;-40
2023/07/04 06:13:11;;;;;;;;;;;;;;;;;;5069097;28;20378;-40
2023/07/04 06:15:37;;;;;;;;;;;;;;;;;;5069576;28;20386;-40
2023/07/04 06:18:03;;;;;;;;;;;;;;;;;;5069730;28;19969;-40
2023/07/04 06:20:29;;;;;;;;;;;;;;;;;;5069872;28;19939;-40
2023/07/04 06:22:55;;;;;;;;;;;;;;;;;;5068736;28;19951;-40
2023/07/04 06:25:21;;;;;;;;;;;;;;;;;;5068373;28;19958;-40
2023/07/04 06:27:47;;;;;;;;;;;;;;;;;;5069550;28;19950;-40
2023/07/04 06:30:13;;;;;;;;;;;;;;;;;;5069068;28;19908;-40
2023/07/04 06:32:39;;;;;;;;;;;;;;;;;;5069632;28;20420;-40
2023/07/04 06:35:05;;;;;;;;;;;;;;;;;;5068123;28;19912;-40
2023/07/04 06:37:31;;;;;;;;;;;;;;;;;;5069466;28;19939;-40
2023/07/04 06:39:57;;;;;;;;;;;;;;;;;;5069384;28;19995;-40
2023/07/04 06:42:23;;;;;;;;;;;;;;;;;;5068575;28;19908;-40
2023/07/04 06:44:48;;;;;;;;;;;;;;;;;;5069146;28;20025;-40
2023/07/04 06:47:14;;;;;;;;;;;;;;;;;;5068456;28;19935;-40
2023/07/04 06:49:40;;;;;;;;;;;;;;;;;;5066096;28;19999;-40
2023/07/04 06:52:06;;;;;;;;;;;;;;;;;;5068695;28;19920;-40
2023/07/04 06:54:32;;;;;;;;;;;;;;;;;;5067219;28;19938;-40
2023/07/04 06:56:58;;;;;;;;;;;;;;;;;;5069998;28;19924;-40
2023/07/04 06:59:24;;;;;;;;;;;;;;;;;;5068457;28;19912;-40
2023/07/04 07:01:50;;;;;;;;;;;;;;;;;;5069158;28;19939;-40
2023/07/04 07:04:17;;;;;;;;;;;;;;;;;;5068694;28;19925;-40
2023/07/04 07:06:42;;;;;;;;;;;;;;;;;;5070087;28;19916;-40
2023/07/04 07:09:08;;;;;;;;;;;;;;;;;;5068951;28;19920;-39
2023/07/04 07:11:34;;;;;;;;;;;;;;;;;;5069666;28;19961;-40
2023/07/04 07:14:01;;;;;;;;;;;;;;;;;;5068046;28;20390;-40
2023/07/04 07:16:26;;;;;;;;;;;;;;;;;;5066512;28;19913;-40
2023/07/04 07:18:52;;;;;;;;;;;;;;;;;;5068258;28;20310;-40
2023/07/04 07:21:19;;;;;;;;;;;;;;;;;;5069557;28;19944;-40
2023/07/04 07:23:45;;;;;;;;;;;;;;;;;;5069521;28;20533;-40
2023/07/04 07:26:11;;;;;;;;;;;;;;;;;;5069508;28;19916;-40
2023/07/04 07:28:38;;;;;;;;;;;;;;;;;;5068275;28;20385;-40
2023/07/04 07:31:04;;;;;;;;;;;;;;;;;;5069129;28;19920;-40
2023/07/04 07:33:31;;;;;;;;;;;;;;;;;;5068766;28;20053;-40
2023/07/04 07:35:57;;;;;;;;;;;;;;;;;;5068093;28;19916;-40
2023/07/04 07:38:23;;;;;;;;;;;;;;;;;;5069328;28;19916;-40
2023/07/04 07:40:49;;;;;;;;;;;;;;;;;;5069374;28;19913;-40
2023/07/04 07:43:15;;;;;;;;;;;;;;;;;;5066417;28;20031;-40
2023/07/04 07:45:41;;;;;;;;;;;;;;;;;;5067299;28;19909;-40
2023/07/04 07:48:07;;;;;;;;;;;;;;;;;;5068347;28;20000;-40
2023/07/04 07:50:33;;;;;;;;;;;;;;;;;;5069406;28;19943;-40
2023/07/04 07:52:59;;;;;;;;;;;;;;;;;;5067488;28;19916;-40
2023/07/04 07:55:25;;;;;;;;;;;;;;;;;;5053802;28;20050;-40
2023/07/04 07:57:51;;;;;;;;;;;;;;;;;;5052814;28;19999;-40
2023/07/04 08:00:17;;;;;;;;;;;;;;;;;;5066064;28;19966;-40
2023/07/04 08:02:43;;;;;;;;;;;;;;;;;;5068939;28;19943;-40
2023/07/04 08:05:09;;;;;;;;;;;;;;;;;;5067260;28;19924;-40
2023/07/04 08:07:35;;;;;;;;;;;;;;;;;;5069299;28;19912;-40
2023/07/04 08:10:01;;;;;;;;;;;;;;;;;;5068851;28;19916;-40
2023/07/04 08:12:27;;;;;;;;;;;;;;;;;;5068922;28;19943;-40
2023/07/04 08:14:53;;;;;;;;;;;;;;;;;;5068328;28;19919;-40
2023/07/04 08:17:21;;;;;;;;;;;;;;;;;;5064675;28;19939;-40
2023/07/04 08:19:47;;;;;;;;;;;;;;;;;;5066786;28;19920;-40
2023/07/04 08:22:13;;;;;;;;;;;;;;;;;;5066587;28;19917;-40
2023/07/04 08:24:39;;;;;;;;;;;;;;;;;;5064527;28;19921;-40
2023/07/04 08:27:04;;;;;;;;;;;;;;;;;;5067394;28;19978;-40
2023/07/04 08:29:30;;;;;;;;;;;;;;;;;;5066913;28;20057;-40
2023/07/04 08:31:57;;;;;;;;;;;;;;;;;;5067571;28;19935;-40
2023/07/04 08:34:23;;;;;;;;;;;;;;;;;;5068266;28;20290;-40
2023/07/04 08:36:49;;;;;;;;;;;;;;;;;;5067989;28;20298;-40
2023/07/04 08:39:16;;;;;;;;;;;;;;;;;;5068182;28;20546;-40
2023/07/04 08:41:42;;;;;;;;;;;;;;;;;;5071995;28;20566;-40
2023/07/04 08:44:08;;;;;;;;;;;;;;;;;;5071264;28;19913;-41
2023/07/04 08:46:34;;;;;;;;;;;;;;;;;;5054718;28;19920;-40
2023/07/04 08:49:00;;;;;;;;;;;;;;;;;;5066768;28;19917;-40
2023/07/04 08:51:26;;;;;;;;;;;;;;;;;;5070384;28;19931;-40
2023/07/04 08:53:52;;;;;;;;;;;;;;;;;;5067559;28;19981;-40
2023/07/04 08:56:18;;;;;;;;;;;;;;;;;;5072281;28;19912;-40
2023/07/04 08:58:44;;;;;;;;;;;;;;;;;;5071856;28;20397;-40
2023/07/04 09:01:10;;;;;;;;;;;;;;;;;;5072111;28;19912;-40
2023/07/04 09:03:36;;;;;;;;;;;;;;;;;;5068121;28;19978;-40
2023/07/04 09:06:02;;;;;;;;;;;;;;;;;;5068962;28;19919;-40
2023/07/04 09:08:27;;;;;;;;;;;;;;;;;;5071140;28;19921;-40
2023/07/04 09:10:53;;;;;;;;;;;;;;;;;;5072083;28;20018;-40
2023/07/04 09:13:19;;;;;;;;;;;;;;;;;;5070411;28;19912;-40
2023/07/04 09:15:45;;;;;;;;;;;;;;;;;;5071160;28;20149;-40
2023/07/04 09:18:11;;;;;;;;;;;;;;;;;;5068640;28;19913;-40
2023/07/04 09:20:37;;;;;;;;;;;;;;;;;;5066088;28;19962;-40
2023/07/04 09:23:03;;;;;;;;;;;;;;;;;;5070941;28;20007;-40
2023/07/04 09:25:29;;;;;;;;;;;;;;;;;;5070842;28;19917;-40
2023/07/04 09:27:55;;;;;;;;;;;;;;;;;;5071630;28;19919;-40
2023/07/04 09:30:22;;;;;;;;;;;;;;;;;;5070021;28;19912;-40
2023/07/04 09:32:48;;;;;;;;;;;;;;;;;;5071811;28;20325;-40
2023/07/04 09:35:14;;;;;;;;;;;;;;;;;;5072009;28;19909;-40
2023/07/04 09:37:40;;;;;;;;;;;;;;;;;;5071587;28;19912;-41
2023/07/04 09:40:06;;;;;;;;;;;;;;;;;;5056878;28;19916;-40
2023/07/04 09:42:32;;;;;;;;;;;;;;;;;;5061753;28;19977;-40
2023/07/04 09:44:58;;;;;;;;;;;;;;;;;;5075983;28;19920;-40
2023/07/04 09:47:24;;;;;;;;;;;;;;;;;;5071590;28;19909;-40
2023/07/04 09:49:52;;;;;;;;;;;;;;;;;;5071427;28;19916;-40
2023/07/04 09:52:18;;;;;;;;;;;;;;;;;;5070755;28;19908;-40
2023/07/04 09:54:44;;;;;;;;;;;;;;;;;;5071039;28;20380;-40
2023/07/04 09:57:10;;;;;;;;;;;;;;;;;;5071221;28;19916;-40
2023/07/04 09:59:36;;;;;;;;;;;;;;;;;;5066386;28;19931;-40
2023/07/04 10:02:02;;;;;;;;;;;;;;;;;;5069055;28;19954;-40
2023/07/04 10:04:28;;;;;;;;;;;;;;;;;;5068088;28;20339;-40
2023/07/04 10:06:56;;;;;;;;;;;;;;;;;;5074316;28;20211;-41
2023/07/04 10:09:22;;;;;;;;;;;;;;;;;;5068454;28;20359;-41
2023/07/04 10:11:48;;;;;;;;;;;;;;;;;;5069846;28;19916;-41
2023/07/04 10:14:14;;;;;;;;;;;;;;;;;;5069778;28;19957;-40
2023/07/04 10:16:40;;;;;;;;;;;;;;;;;;5070023;28;19917;-40
2023/07/04 10:19:06;;;;;;;;;;;;;;;;;;5068935;28;19927;-40
2023/07/04 10:21:32;;;;;;;;;;;;;;;;;;5069045;28;19960;-40
2023/07/04 10:23:59;;;;;;;;;;;;;;;;;;5068010;28;19939;-40
2023/07/04 10:26:25;;;;;;;;;;;;;;;;;;5063770;28;19913;-40
2023/07/04 10:28:52;;;;;;;;;;;;;;;;;;5068863;28;19916;-40
2023/07/04 10:31:18;;;;;;;;;;;;;;;;;;5074662;28;19951;-42
2023/07/04 10:33:44;;;;;;;;;;;;;;;;;;5068740;28;19967;-41
2023/07/04 10:36:10;;;;;;;;;;;;;;;;;;5069930;28;19986;-41
2023/07/04 10:38:36;;;;;;;;;;;;;;;;;;5069281;28;19920;-41
2023/07/04 10:41:02;;;;;;;;;;;;;;;;;;5069014;28;19909;-41
2023/07/04 10:43:28;;;;;;;;;;;;;;;;;;5068546;28;19916;-41
2023/07/04 10:45:54;;;;;;;;;;;;;;;;;;5069297;28;19908;-41
2023/07/04 10:48:20;;;;;;;;;;;;;;;;;;5068306;28;19917;-41
2023/07/04 10:50:46;;;;;;;;;;;;;;;;;;5083218;28;20547;-41
2023/07/04 10:53:12;;;;;;;;;;;;;;;;;;5078126;28;19925;-41
2023/07/04 10:55:38;;;;;;;;;;;;;;;;;;5075179;28;20025;-41
2023/07/04 10:58:05;;;;;;;;;;;;;;;;;;5069523;28;19920;-41
2023/07/04 11:00:31;;;;;;;;;;;;;;;;;;5084386;28;19935;-41
2023/07/04 11:02:57;;;;;;;;;;;;;;;;;;5086759;28;20398;-41
2023/07/04 11:05:23;;;;;;;;;;;;;;;;;;5068937;28;19966;-41
2023/07/04 11:07:49;;;;;;;;;;;;;;;;;;5068702;28;19946;-41
2023/07/04 11:10:15;;;;;;;;;;;;;;;;;;5066246;28;19916;-41
2023/07/04 11:12:42;;;;;;;;;;;;;;;;;;5066758;28;19916;-41
2023/07/04 11:15:08;;;;;;;;;;;;;;;;;;5064590;28;19923;-41
2023/07/04 11:17:36;;;;;;;;;;;;;;;;;;5063666;28;20286;-39
2023/07/04 11:20:12;;;;;;;;;;;;;;;;;;5062534;28;19931;-39
2023/07/04 11:22:38;;;;;;;;;;;;;;;;;;5061780;28;20382;-39
2023/07/04 11:25:03;;;;;;;;;;;;;;;;;;5061331;28;19917;-39
2023/07/04 11:27:30;;;;;;;;;;;;;;;;;;5060875;28;19973;-39
2023/07/04 11:29:56;;;;;;;;;;;;;;;;;;5062975;28;19953;-39
2023/07/04 11:32:23;;;;;;;;;;;;;;;;;;5061619;28;20007;-40
2023/07/04 11:34:50;;;;;;;;;;;;;;;;;;5065362;28;19930;-39
2023/07/04 11:37:16;;;;;;;;;;;;;;;;;;5063145;28;19926;-40
2023/07/04 11:39:43;;;;;;;;;;;;;;;;;;5063458;28;19927;-40
2023/07/04 11:42:11;;;;;;;;;;;;;;;;;;5060581;28;20003;-40
2023/07/04 11:44:38;;;;;;;;;;;;;;;;;;5060281;28;20391;-39
2023/07/04 11:47:04;;;;;;;;;;;;;;;;;;5063722;28;19916;-39
2023/07/04 11:49:30;;;;;;;;;;;;;;;;;;5064867;28;20386;-39
2023/07/04 11:51:56;;;;;;;;;;;;;;;;;;5059891;28;19923;-40
2023/07/04 11:54:22;;;;;;;;;;;;;;;;;;5060546;28;19943;-40
2023/07/04 11:56:48;;;;;;;;;;;;;;;;;;5060322;28;20004;-40
2023/07/04 11:59:14;;;;;;;;;;;;;;;;;;5061444;28;19913;-40
2023/07/04 12:01:40;;;;;;;;;;;;;;;;;;5062803;28;19928;-40
2023/07/04 12:04:06;;;;;;;;;;;;;;;;;;5062663;28;19925;-40
2023/07/04 12:06:32;;;;;;;;;;;;;;;;;;5061307;28;19920;-40
2023/07/04 12:08:58;;;;;;;;;;;;;;;;;;5063490;28;19928;-40
2023/07/04 12:11:24;;;;;;;;;;;;;;;;;;5062408;28;20982;-40
2023/07/04 12:13:51;;;;;;;;;;;;;;;;;;5061074;28;19919;-40
2023/07/04 12:16:17;;;;;;;;;;;;;;;;;;5065114;28;19924;-40
2023/07/04 12:18:44;;;;;;;;;;;;;;;;;;5066793;28;19913;-41
2023/07/04 12:21:10;;;;;;;;;;;;;;;;;;5063986;28;19970;-46
2023/07/04 12:23:37;;;;;;;;;;;;;;;;;;5063403;28;20282;-45
2023/07/04 12:26:03;;;;;;;;;;;;;;;;;;5066659;28;19916;-45
2023/07/04 12:28:29;;;;;;;;;;;;;;;;;;5063739;28;19913;-47
2023/07/04 12:30:56;;;;;;;;;;;;;;;;;;5066639;28;19919;-46
2023/07/04 12:33:23;;;;;;;;;;;;;;;;;;5066484;28;20394;-48
2023/07/04 12:35:55;;;;;;;;;;;;;;;;;;5064741;28;19965;-46
2023/07/04 12:38:20;;;;;;;;;;;;;;;;;;5064930;28;19932;-46
2023/07/04 12:40:48;;;;;;;;;;;;;;;;;;5063919;28;20247;-48
2023/07/04 12:43:15;;;;;;;;;;;;;;;;;;5065853;28;19927;-48
2023/07/04 12:45:41;;;;;;;;;;;;;;;;;;5062288;28;19913;-50
2023/07/04 12:48:09;;;;;;;;;;;;;;;;;;5066197;28;19923;-50
2023/07/04 12:50:36;;;;;;;;;;;;;;;;;;5067292;28;19923;-49
2023/07/04 12:53:03;;;;;;;;;;;;;;;;;;5068322;28;19987;-48
2023/07/04 12:55:29;;;;;;;;;;;;;;;;;;5064500;28;19912;-51
2023/07/04 12:57:55;;;;;;;;;;;;;;;;;;5065684;28;20302;-48
2023/07/04 13:00:24;;;;;;;;;;;;;;;;;;5064908;28;19916;-49
2023/07/04 13:02:50;;;;;;;;;;;;;;;;;;5069080;28;19916;-51
2023/07/04 13:05:16;;;;;;;;;;;;;;;;;;5065992;28;19927;-48
2023/07/04 13:07:42;;;;;;;;;;;;;;;;;;5065917;28;20399;-48
2023/07/04 13:10:09;;;;;;;;;;;;;;;;;;5082829;28;20003;-50
2023/07/04 13:12:35;;;;;;;;;;;;;;;;;;5070351;28;19923;-50
2023/07/04 13:15:01;;;;;;;;;;;;;;;;;;5062590;28;19938;-49
2023/07/04 13:17:27;;;;;;;;;;;;;;;;;;5065588;28;20379;-51
2023/07/04 13:19:53;;;;;;;;;;;;;;;;;;5065859;28;19912;-49
2023/07/04 13:22:19;;;;;;;;;;;;;;;;;;5065804;28;19965;-49
2023/07/04 13:24:51;;;;;;;;;;;;;;;;;;5063760;28;20298;-49
2023/07/04 13:27:18;;;;;;;;;;;;;;;;;;5065343;28;20619;-52
2023/07/04 13:29:45;;;;;;;;;;;;;;;;;;5068357;28;19909;-50
2023/07/04 13:32:11;;;;;;;;;;;;;;;;;;5065781;28;19913;-52
2023/07/04 13:34:38;;;;;;;;;;;;;;;;;;5063139;28;20441;-51
2023/07/04 13:37:07;;;;;;;;;;;;;;;;;;5066173;28;20387;-52
2023/07/04 13:39:33;;;;;;;;;;;;;;;;;;5064686;28;19924;-49
2023/07/04 13:41:59;;;;;;;;;;;;;;;;;;5065531;28;19913;-47
2023/07/04 13:44:24;;;;;;;;;;;;;;;;;;5065095;28;19920;-48
2023/07/04 13:46:50;;;;;;;;;;;;;;;;;;5067384;28;20136;-49
2023/07/04 13:49:16;;;;;;;;;;;;;;;;;;5063910;28;20005;-49
2023/07/04 13:51:44;;;;;;;;;;;;;;;;;;5065581;28;19916;-50
2023/07/04 13:54:10;;;;;;;;;;;;;;;;;;5063417;28;19923;-47
2023/07/04 13:56:37;;;;;;;;;;;;;;;;;;5066227;28;19931;-49
2023/07/04 13:59:03;;;;;;;;;;;;;;;;;;5062719;28;19917;-49
2023/07/04 14:01:30;;;;;;;;;;;;;;;;;;5071843;28;19909;-49
2023/07/04 14:03:56;;;;;;;;;;;;;;;;;;5067812;28;19928;-49
2023/07/04 14:06:22;;;;;;;;;;;;;;;;;;5065501;28;19913;-48
2023/07/04 14:08:48;;;;;;;;;;;;;;;;;;5066329;28;19920;-48
2023/07/04 14:11:14;;;;;;;;;;;;;;;;;;5067169;28;20002;-48
2023/07/04 14:13:40;;;;;;;;;;;;;;;;;;5066658;28;20031;-49
2023/07/04 14:16:06;;;;;;;;;;;;;;;;;;5068714;28;20024;-49
2023/07/04 14:18:32;;;;;;;;;;;;;;;;;;5066209;28;20701;-49
2023/07/04 14:20:58;;;;;;;;;;;;;;;;;;5067095;28;20430;-50
2023/07/04 14:23:24;;;;;;;;;;;;;;;;;;5067379;28;19942;-49
2023/07/04 14:25:50;;;;;;;;;;;;;;;;;;5065437;28;19922;-49
2023/07/04 14:28:16;;;;;;;;;;;;;;;;;;5065921;28;19973;-49
2023/07/04 14:30:42;;;;;;;;;;;;;;;;;;5068217;28;19912;-48
2023/07/04 14:33:08;;;;;;;;;;;;;;;;;;5063836;28;19938;-48
2023/07/04 14:35:34;;;;;;;;;;;;;;;;;;5064273;28;20027;-49
2023/07/04 14:38:00;;;;;;;;;;;;;;;;;;5066231;28;19912;-48
2023/07/04 14:40:27;;;;;;;;;;;;;;;;;;5065822;28;19961;-48
2023/07/04 14:42:53;;;;;;;;;;;;;;;;;;5064827;28;19916;-48
2023/07/04 14:45:19;;;;;;;;;;;;;;;;;;5066557;28;20319;-48
2023/07/04 14:47:45;;;;;;;;;;;;;;;;;;5065773;28;19966;-51
2023/07/04 14:50:11;;;;;;;;;;;;;;;;;;5064224;28;19924;-49
2023/07/04 14:52:37;;;;;;;;;;;;;;;;;;5065132;28;19912;-48
2023/07/04 14:55:08;;;;;;;;;;;;;;;;;;5067131;28;19922;-49
2023/07/04 14:57:34;;;;;;;;;;;;;;;;;;5066727;28;19916;-49
2023/07/04 15:00:00;;;;;;;;;;;;;;;;;;5067399;28;20572;-48
2023/07/04 15:02:26;;;;;;;;;;;;;;;;;;5063627;28;19947;-50
2023/07/04 15:04:52;;;;;;;;;;;;;;;;;;5065568;28;19923;-51
2023/07/04 15:07:19;;;;;;;;;;;;;;;;;;5053648;28;19916;-49
2023/07/04 15:09:46;;;;;;;;;;;;;;;;;;5063827;28;19970;-48
2023/07/04 15:12:11;;;;;;;;;;;;;;;;;;5064784;28;19916;-50
2023/07/04 15:14:38;;;;;;;;;;;;;;;;;;5063968;28;19923;-49
2023/07/04 15:17:04;;;;;;;;;;;;;;;;;;5047683;28;19909;-51
2023/07/04 15:19:30;;;;;;;;;;;;;;;;;;5062953;28;20436;-50
2023/07/04 15:21:57;;;;;;;;;;;;;;;;;;5061115;28;19920;-49
2023/07/04 15:24:23;;;;;;;;;;;;;;;;;;5061665;28;19920;-49
2023/07/04 15:26:49;;;;;;;;;;;;;;;;;;5061813;28;19967;-49
2023/07/04 15:29:15;;;;;;;;;;;;;;;;;;5062573;28;20386;-49
2023/07/04 15:31:41;;;;;;;;;;;;;;;;;;5064313;28;19916;-49
2023/07/04 15:34:07;;;;;;;;;;;;;;;;;;5063524;28;19958;-52
2023/07/04 15:36:33;;;;;;;;;;;;;;;;;;5063153;28;20043;-49
2023/07/04 15:39:00;;;;;;;;;;;;;;;;;;5063971;28;19916;-47
2023/07/04 15:41:27;;;;;;;;;;;;;;;;;;5063233;28;19916;-52
2023/07/04 15:43:53;;;;;;;;;;;;;;;;;;5063932;28;19920;-51
2023/07/04 15:46:19;;;;;;;;;;;;;;;;;;5062296;28;20272;-48
2023/07/04 15:48:45;;;;;;;;;;;;;;;;;;5063560;28;19920;-50
2023/07/04 15:51:12;;;;;;;;;;;;;;;;;;5066260;28;19963;-47
2023/07/04 15:53:38;;;;;;;;;;;;;;;;;;5065846;28;19942;-49
2023/07/04 15:56:04;;;;;;;;;;;;;;;;;;5066117;28;20405;-49
2023/07/04 15:58:30;;;;;;;;;;;;;;;;;;5064385;28;19920;-50
2023/07/04 16:00:57;;;;;;;;;;;;;;;;;;5062498;28;19923;-49
2023/07/04 16:03:24;;;;;;;;;;;;;;;;;;5064947;28;19977;-52
2023/07/04 16:05:50;;;;;;;;;;;;;;;;;;5063157;28;19913;-52
2023/07/04 16:08:16;;;;;;;;;;;;;;;;;;5079026;28;19912;-49
2023/07/04 16:10:42;;;;;;;;;;;;;;;;;;5064786;28;19912;-48
2023/07/04 16:13:08;;;;;;;;;;;;;;;;;;5061852;28;19917;-50
2023/07/04 16:15:35;;;;;;;;;;;;;;;;;;5067577;28;19961;-50
2023/07/04 16:18:01;;;;;;;;;;;;;;;;;;5061598;28;20386;-52
2023/07/04 16:20:27;;;;;;;;;;;;;;;;;;5067140;28;19913;-51
2023/07/04 16:22:54;;;;;;;;;;;;;;;;;;5064527;28;20664;-49
2023/07/04 16:25:20;;;;;;;;;;;;;;;;;;5068205;28;20357;-50
2023/07/04 16:27:46;;;;;;;;;;;;;;;;;;5066216;28;20003;-48
2023/07/04 16:30:12;;;;;;;;;;;;;;;;;;5065141;28;19919;-48
2023/07/04 16:32:38;;;;;;;;;;;;;;;;;;5065474;28;19916;-49
2023/07/04 16:35:04;;;;;;;;;;;;;;;;;;5070577;28;19912;-52
2023/07/04 16:37:30;;;;;;;;;;;;;;;;;;5070745;28;19917;-52
2023/07/04 16:39:56;;;;;;;;;;;;;;;;;;5070250;28;19912;-49
2023/07/04 16:42:22;;;;;;;;;;;;;;;;;;5065621;28;19934;-50
2023/07/04 16:44:48;;;;;;;;;;;;;;;;;;5066613;28;19924;-50
2023/07/04 16:47:14;;;;;;;;;;;;;;;;;;5068375;28;19916;-50
2023/07/04 16:49:40;;;;;;;;;;;;;;;;;;5070313;28;19931;-52
2023/07/04 16:52:07;;;;;;;;;;;;;;;;;;5063438;28;19913;-50
2023/07/04 16:54:33;;;;;;;;;;;;;;;;;;5049881;28;20421;-49
2023/07/04 16:57:01;;;;;;;;;;;;;;;;;;5058954;28;19916;-49
2023/07/04 16:59:27;;;;;;;;;;;;;;;;;;5069570;28;19908;-49
2023/07/04 17:01:53;;;;;;;;;;;;;;;;;;5058781;28;20264;-48
2023/07/04 17:04:19;;;;;;;;;;;;;;;;;;5064897;28;19960;-49
2023/07/04 17:06:46;;;;;;;;;;;;;;;;;;5067071;28;19913;-51
2023/07/04 17:09:12;;;;;;;;;;;;;;;;;;5061297;28;19951;-49
2023/07/04 17:11:38;;;;;;;;;;;;;;;;;;5063196;28;19920;-49
2023/07/04 17:14:05;;;;;;;;;;;;;;;;;;5065572;28;20377;-51
2023/07/04 17:16:32;;;;;;;;;;;;;;;;;;5063892;28;20015;-48
2023/07/04 17:18:58;;;;;;;;;;;;;;;;;;5064821;28;19920;-48
2023/07/04 17:21:23;;;;;;;;;;;;;;;;;;5065633;28;19912;-47
2023/07/04 17:23:50;;;;;;;;;;;;;;;;;;5058470;28;19943;-49
2023/07/04 17:26:16;;;;;;;;;;;;;;;;;;5063035;28;19966;-48
2023/07/04 17:28:42;;;;;;;;;;;;;;;;;;5064044;28;19928;-49
2023/07/04 17:31:08;;;;;;;;;;;;;;;;;;5078118;28;19908;-48
2023/07/04 17:33:34;;;;;;;;;;;;;;;;;;5084314;28;19922;-49
2023/07/04 17:36:01;;;;;;;;;;;;;;;;;;5066338;28;19913;-48
2023/07/04 17:38:27;;;;;;;;;;;;;;;;;;5064134;28;19920;-49
2023/07/04 17:40:54;;;;;;;;;;;;;;;;;;5063315;28;19913;-48
2023/07/04 17:43:20;;;;;;;;;;;;;;;;;;5063779;28;19920;-49
2023/07/04 17:45:49;;;;;;;;;;;;;;;;;;5055890;28;19966;-48
2023/07/04 17:48:15;;;;;;;;;;;;;;;;;;5062092;28;19919;-49
2023/07/04 17:50:42;;;;;;;;;;;;;;;;;;5064613;28;19916;-48
2023/07/04 17:53:08;;;;;;;;;;;;;;;;;;5061860;28;20417;-48
2023/07/04 17:55:34;;;;;;;;;;;;;;;;;;5067142;28;19912;-49
2023/07/04 17:58:00;;;;;;;;;;;;;;;;;;5060448;28;19923;-49
2023/07/04 18:00:26;;;;;;;;;;;;;;;;;;5060218;28;19955;-48
2023/07/04 18:02:55;;;;;;;;;;;;;;;;;;5059082;28;20314;-48
2023/07/04 18:05:22;;;;;;;;;;;;;;;;;;5061268;28;19916;-48
2023/07/04 18:07:48;;;;;;;;;;;;;;;;;;5060774;28;19916;-47
2023/07/04 18:10:14;;;;;;;;;;;;;;;;;;5058343;28;20131;-48
2023/07/04 18:12:40;;;;;;;;;;;;;;;;;;5059939;28;20025;-48
2023/07/04 18:15:08;;;;;;;;;;;;;;;;;;5060842;28;19916;-48
2023/07/04 18:17:35;;;;;;;;;;;;;;;;;;5060659;28;20293;-48
2023/07/04 18:20:03;;;;;;;;;;;;;;;;;;5060127;28;19960;-48
2023/07/04 18:22:29;;;;;;;;;;;;;;;;;;5060675;28;20383;-50
2023/07/04 18:24:56;;;;;;;;;;;;;;;;;;5059035;28;19920;-49
2023/07/04 18:27:22;;;;;;;;;;;;;;;;;;5060741;28;19919;-49
2023/07/04 18:29:48;;;;;;;;;;;;;;;;;;5061495;28;19923;-47
2023/07/04 18:32:14;;;;;;;;;;;;;;;;;;5053287;28;20379;-49
2023/07/04 18:34:41;;;;;;;;;;;;;;;;;;5057165;28;19916;-47
2023/07/04 18:37:07;;;;;;;;;;;;;;;;;;5061189;28;19956;-48
2023/07/04 18:39:33;;;;;;;;;;;;;;;;;;5058925;28;19947;-47
2023/07/04 18:41:59;;;;;;;;;;;;;;;;;;5063340;28;19918;-49
2023/07/04 18:44:26;;;;;;;;;;;;;;;;;;5063725;28;19966;-48
2023/07/04 18:46:51;;;;;;;;;;;;;;;;;;5063916;28;20399;-47
2023/07/04 18:49:20;;;;;;;;;;;;;;;;;;5058724;28;21013;-47
2023/07/04 18:51:46;;;;;;;;;;;;;;;;;;5058959;28;20762;-48
2023/07/04 18:54:13;;;;;;;;;;;;;;;;;;5062931;28;20482;-47
2023/07/04 18:56:40;;;;;;;;;;;;;;;;;;5061941;28;19916;-48
2023/07/04 18:59:07;;;;;;;;;;;;;;;;;;5060282;28;20322;-47
2023/07/04 19:01:34;;;;;;;;;;;;;;;;;;5063341;28;19921;-48
2023/07/04 19:04:01;;;;;;;;;;;;;;;;;;5058317;28;19921;-47
2023/07/04 19:06:28;;;;;;;;;;;;;;;;;;5057781;28;19920;-48
2023/07/04 19:08:54;;;;;;;;;;;;;;;;;;5058894;28;20434;-47
2023/07/04 19:11:20;;;;;;;;;;;;;;;;;;5063132;28;19959;-49
2023/07/04 19:13:46;;;;;;;;;;;;;;;;;;5061723;28;19916;-48
2023/07/04 19:16:12;;;;;;;;;;;;;;;;;;5058346;28;19913;-47
2023/07/04 19:18:39;;;;;;;;;;;;;;;;;;5062021;28;19916;-47
2023/07/04 19:21:05;;;;;;;;;;;;;;;;;;5060832;28;20310;-48
2023/07/04 19:23:31;;;;;;;;;;;;;;;;;;5061020;28;19917;-47
2023/07/04 19:25:56;;;;;;;;;;;;;;;;;;5062747;28;19919;-48
2023/07/04 19:28:22;;;;;;;;;;;;;;;;;;5062392;28;19916;-48
2023/07/04 19:30:48;;;;;;;;;;;;;;;;;;5064781;28;19987;-47
2023/07/04 19:33:15;;;;;;;;;;;;;;;;;;5060269;28;20021;-47
2023/07/04 19:35:42;;;;;;;;;;;;;;;;;;5061761;28;19913;-50
2023/07/04 19:38:10;;;;;;;;;;;;;;;;;;5062569;28;19923;-46
2023/07/04 19:40:35;;;;;;;;;;;;;;;;;;5061887;28;19931;-48
2023/07/04 19:43:02;;;;;;;;;;;;;;;;;;5063665;28;20286;-49
2023/07/04 19:45:28;;;;;;;;;;;;;;;;;;5060564;28;19939;-48
2023/07/04 19:47:54;;;;;;;;;;;;;;;;;;5060868;28;20375;-49
2023/07/04 19:50:21;;;;;;;;;;;;;;;;;;5060474;28;19923;-49
2023/07/04 19:52:48;;;;;;;;;;;;;;;;;;5061426;28;19919;-46
2023/07/04 19:55:16;;;;;;;;;;;;;;;;;;5061559;28;20421;-47
2023/07/04 19:57:42;;;;;;;;;;;;;;;;;;5059218;28;19923;-48
2023/07/04 20:00:08;;;;;;;;;;;;;;;;;;5061612;28;19920;-47
2023/07/04 20:02:35;;;;;;;;;;;;;;;;;;5064388;28;20605;-47
2023/07/04 20:05:01;;;;;;;;;;;;;;;;;;5062793;28;19920;-48
2023/07/04 20:07:27;;;;;;;;;;;;;;;;;;5059840;28;20026;-48
2023/07/04 20:09:53;;;;;;;;;;;;;;;;;;5062584;28;19928;-48
2023/07/04 20:12:19;;;;;;;;;;;;;;;;;;5060440;28;19916;-47
2023/07/04 20:14:47;;;;;;;;;;;;;;;;;;5060766;28;19982;-49
2023/07/04 20:17:13;;;;;;;;;;;;;;;;;;5059734;28;19917;-49
2023/07/04 20:19:39;;;;;;;;;;;;;;;;;;5063737;28;19935;-49
2023/07/04 20:22:05;;;;;;;;;;;;;;;;;;5059439;28;19916;-47
2023/07/04 20:24:31;;;;;;;;;;;;;;;;;;5061495;28;20023;-48
2023/07/04 20:26:58;;;;;;;;;;;;;;;;;;5062128;28;19918;-51
2023/07/04 20:29:24;;;;;;;;;;;;;;;;;;5060787;28;19958;-49
2023/07/04 20:31:50;;;;;;;;;;;;;;;;;;5063067;28;19912;-48
2023/07/04 20:34:16;;;;;;;;;;;;;;;;;;5061289;28;19916;-47
2023/07/04 20:36:43;;;;;;;;;;;;;;;;;;5065075;28;19943;-48
2023/07/04 20:39:09;;;;;;;;;;;;;;;;;;5065228;28;19962;-50
2023/07/04 20:41:36;;;;;;;;;;;;;;;;;;5067476;28;19955;-49
2023/07/04 20:44:02;;;;;;;;;;;;;;;;;;5063943;28;19935;-47
2023/07/04 20:46:29;;;;;;;;;;;;;;;;;;5064642;28;20367;-48
2023/07/04 20:48:55;;;;;;;;;;;;;;;;;;5066368;28;19947;-49
2023/07/04 20:51:23;;;;;;;;;;;;;;;;;;5066095;28;20349;-48
2023/07/04 20:53:48;;;;;;;;;;;;;;;;;;5066098;28;19919;-50
2023/07/04 20:56:15;;;;;;;;;;;;;;;;;;5066213;28;20477;-47
2023/07/04 20:58:40;;;;;;;;;;;;;;;;;;5067014;28;19974;-49
2023/07/04 21:01:06;;;;;;;;;;;;;;;;;;5066299;28;20309;-47
2023/07/04 21:03:34;;;;;;;;;;;;;;;;;;5067530;28;20007;-49
2023/07/04 21:06:00;;;;;;;;;;;;;;;;;;5065781;28;19908;-48
2023/07/04 21:08:26;;;;;;;;;;;;;;;;;;5066094;28;20299;-47
2023/07/04 21:11:13;;;;;;;;;;;;;;;;;;5066838;28;19916;-47
2023/07/04 21:13:38;;;;;;;;;;;;;;;;;;5065867;28;19963;-47
2023/07/04 21:16:05;;;;;;;;;;;;;;;;;;5066101;28;19913;-48
2023/07/04 21:18:31;;;;;;;;;;;;;;;;;;5066154;28;19944;-48
2023/07/04 21:20:57;;;;;;;;;;;;;;;;;;5066025;28;19959;-48
2023/07/04 21:23:23;;;;;;;;;;;;;;;;;;5065671;28;19909;-47
2023/07/04 21:25:49;;;;;;;;;;;;;;;;;;5064883;28;19959;-47
2023/07/04 21:28:16;;;;;;;;;;;;;;;;;;5065381;28;19913;-48
2023/07/04 21:30:42;;;;;;;;;;;;;;;;;;5066783;28;20425;-48
2023/07/04 21:33:08;;;;;;;;;;;;;;;;;;5065852;28;19948;-50
2023/07/04 21:35:36;;;;;;;;;;;;;;;;;;5063630;28;19923;-48
2023/07/04 21:38:02;;;;;;;;;;;;;;;;;;5066101;28;20517;-49
2023/07/04 21:40:29;;;;;;;;;;;;;;;;;;5065299;28;19959;-48
2023/07/04 21:42:55;;;;;;;;;;;;;;;;;;5064390;28;19909;-47
2023/07/04 21:45:20;;;;;;;;;;;;;;;;;;5065346;28;20398;-47